sensor_id;sensor_type;location;lat;lon;timestamp;P1;durP1;ratioP1;P2;durP2;ratioP2
4652;SDS011;9900;48.738;9.306;2022-11-20T00:01:36;5.33;;;3.40;;
4652;SDS011;9900;48.738;9.306;2022-11-20T00:04:05;4.00;;;3.53;;
4652;SDS011;9900;48.738;9.306;2022-11-20T00:06:33;4.40;;;3.70;;
4652;SDS011;9900;48.738;9.306;2022-11-20T00:09:02;6.20;;;4.90;;
4652;SDS011;9900;48.738;9.306;2022-11-20T00:11:33;5.63;;;4.23;;
4652;SDS011;9900;48.738;9.306;2022-11-20T00:14:02;8.37;;;5.37;;
4652;SDS011;9900;48.738;9.306;2022-11-20T00:16:31;6.60;;;4.60;;
4652;SDS011;9900;48.738;9.306;2022-11-20T00:19:00;4.57;;;3.93;;
4652;SDS011;9900;48.738;9.306;2022-11-20T00:21:29;3.93;;;3.63;;
4652;SDS011;9900;48.738;9.306;2022-11-20T00:23:58;5.90;;;4.30;;
4652;SDS011;9900;48.738;9.306;2022-11-20T00:26:27;4.13;;;3.80;;
4652;SDS011;9900;48.738;9.306;2022-11-20T00:28:58;4.30;;;3.90;;
4652;SDS011;9900;48.738;9.306;2022-11-20T00:31:27;6.60;;;4.33;;
4652;SDS011;9900;48.738;9.306;2022-11-20T00:33:57;5.20;;;3.73;;
4652;SDS011;9900;48.738;9.306;2022-11-20T00:36:26;4.97;;;3.93;;
4652;SDS011;9900;48.738;9.306;2022-11-20T00:38:56;3.97;;;3.53;;
4652;SDS011;9900;48.738;9.306;2022-11-20T00:41:25;3.83;;;3.37;;
4652;SDS011;9900;48.738;9.306;2022-11-20T00:43:55;3.20;;;2.90;;
4652;SDS011;9900;48.738;9.306;2022-11-20T00:46:26;5.70;;;3.03;;
4652;SDS011;9900;48.738;9.306;2022-11-20T00:48:55;3.30;;;3.00;;
4652;SDS011;9900;48.738;9.306;2022-11-20T00:51:24;4.57;;;3.47;;
4652;SDS011;9900;48.738;9.306;2022-11-20T00:53:54;4.33;;;3.13;;
4652;SDS011;9900;48.738;9.306;2022-11-20T00:56:23;4.70;;;3.60;;
4652;SDS011;9900;48.738;9.306;2022-11-20T00:58:52;3.73;;;3.43;;
4652;SDS011;9900;48.738;9.306;2022-11-20T01:01:21;4.13;;;3.63;;
4652;SDS011;9900;48.738;9.306;2022-11-20T01:03:55;6.80;;;4.47;;
4652;SDS011;9900;48.738;9.306;2022-11-20T01:06:25;3.87;;;3.30;;
4652;SDS011;9900;48.738;9.306;2022-11-20T01:08:55;5.97;;;3.50;;
4652;SDS011;9900;48.738;9.306;2022-11-20T01:11:25;4.63;;;3.10;;
4652;SDS011;9900;48.738;9.306;2022-11-20T01:13:55;4.03;;;3.50;;
4652;SDS011;9900;48.738;9.306;2022-11-20T01:16:26;3.60;;;3.27;;
4652;SDS011;9900;48.738;9.306;2022-11-20T01:18:57;6.63;;;3.40;;
4652;SDS011;9900;48.738;9.306;2022-11-20T01:21:28;7.87;;;3.63;;
4652;SDS011;9900;48.738;9.306;2022-11-20T01:23:58;3.13;;;2.83;;
4652;SDS011;9900;48.738;9.306;2022-11-20T01:26:28;7.10;;;2.87;;
4652;SDS011;9900;48.738;9.306;2022-11-20T01:28:58;3.30;;;2.60;;
4652;SDS011;9900;48.738;9.306;2022-11-20T01:31:28;5.40;;;2.73;;
4652;SDS011;9900;48.738;9.306;2022-11-20T01:33:59;3.43;;;2.90;;
4652;SDS011;9900;48.738;9.306;2022-11-20T01:36:29;3.17;;;2.50;;
4652;SDS011;9900;48.738;9.306;2022-11-20T01:39:00;4.03;;;2.00;;
4652;SDS011;9900;48.738;9.306;2022-11-20T01:41:33;2.80;;;1.60;;
4652;SDS011;9900;48.738;9.306;2022-11-20T01:44:21;1.77;;;1.67;;
4652;SDS011;9900;48.738;9.306;2022-11-20T01:46:52;2.00;;;1.80;;
4652;SDS011;9900;48.738;9.306;2022-11-20T01:49:26;3.10;;;1.60;;
4652;SDS011;9900;48.738;9.306;2022-11-20T01:51:58;3.80;;;1.87;;
4652;SDS011;9900;48.738;9.306;2022-11-20T01:54:30;2.23;;;2.03;;
4652;SDS011;9900;48.738;9.306;2022-11-20T01:57:03;2.87;;;2.03;;
4652;SDS011;9900;48.738;9.306;2022-11-20T01:59:34;3.20;;;1.80;;
4652;SDS011;9900;48.738;9.306;2022-11-20T02:02:06;2.17;;;1.70;;
4652;SDS011;9900;48.738;9.306;2022-11-20T02:04:36;2.70;;;2.20;;
4652;SDS011;9900;48.738;9.306;2022-11-20T02:07:04;3.00;;;2.30;;
4652;SDS011;9900;48.738;9.306;2022-11-20T02:09:33;2.40;;;1.87;;
4652;SDS011;9900;48.738;9.306;2022-11-20T02:12:02;4.03;;;2.00;;
4652;SDS011;9900;48.738;9.306;2022-11-20T02:14:31;2.43;;;2.23;;
4652;SDS011;9900;48.738;9.306;2022-11-20T02:16:59;2.20;;;1.90;;
4652;SDS011;9900;48.738;9.306;2022-11-20T02:19:28;6.13;;;2.13;;
4652;SDS011;9900;48.738;9.306;2022-11-20T02:22:02;1.73;;;1.63;;
4652;SDS011;9900;48.738;9.306;2022-11-20T02:24:36;2.30;;;2.10;;
4652;SDS011;9900;48.738;9.306;2022-11-20T02:27:06;2.37;;;2.17;;
4652;SDS011;9900;48.738;9.306;2022-11-20T02:29:37;2.00;;;1.90;;
4652;SDS011;9900;48.738;9.306;2022-11-20T02:32:17;3.33;;;2.10;;
4652;SDS011;9900;48.738;9.306;2022-11-20T02:34:46;2.73;;;2.20;;
4652;SDS011;9900;48.738;9.306;2022-11-20T02:37:15;2.73;;;2.10;;
4652;SDS011;9900;48.738;9.306;2022-11-20T02:39:45;2.13;;;2.00;;
4652;SDS011;9900;48.738;9.306;2022-11-20T02:42:15;2.90;;;2.20;;
4652;SDS011;9900;48.738;9.306;2022-11-20T02:44:44;6.93;;;2.00;;
4652;SDS011;9900;48.738;9.306;2022-11-20T02:47:12;4.17;;;2.27;;
4652;SDS011;9900;48.738;9.306;2022-11-20T02:49:41;2.50;;;2.10;;
4652;SDS011;9900;48.738;9.306;2022-11-20T02:52:10;2.37;;;2.10;;
4652;SDS011;9900;48.738;9.306;2022-11-20T02:54:38;4.43;;;2.30;;
4652;SDS011;9900;48.738;9.306;2022-11-20T02:57:08;3.13;;;2.83;;
4652;SDS011;9900;48.738;9.306;2022-11-20T02:59:37;2.70;;;2.50;;
4652;SDS011;9900;48.738;9.306;2022-11-20T03:02:05;4.97;;;2.67;;
4652;SDS011;9900;48.738;9.306;2022-11-20T03:04:34;2.40;;;2.30;;
4652;SDS011;9900;48.738;9.306;2022-11-20T03:07:03;3.53;;;2.90;;
4652;SDS011;9900;48.738;9.306;2022-11-20T03:09:32;2.50;;;2.30;;
4652;SDS011;9900;48.738;9.306;2022-11-20T03:12:00;2.53;;;2.30;;
4652;SDS011;9900;48.738;9.306;2022-11-20T03:14:30;2.63;;;2.37;;
4652;SDS011;9900;48.738;9.306;2022-11-20T03:16:59;2.80;;;2.50;;
4652;SDS011;9900;48.738;9.306;2022-11-20T03:19:28;5.03;;;3.40;;
4652;SDS011;9900;48.738;9.306;2022-11-20T03:21:56;4.17;;;2.97;;
4652;SDS011;9900;48.738;9.306;2022-11-20T03:24:25;5.10;;;2.90;;
4652;SDS011;9900;48.738;9.306;2022-11-20T03:26:54;4.00;;;2.70;;
4652;SDS011;9900;48.738;9.306;2022-11-20T03:29:23;3.77;;;2.70;;
4652;SDS011;9900;48.738;9.306;2022-11-20T03:31:52;4.10;;;2.80;;
4652;SDS011;9900;48.738;9.306;2022-11-20T03:34:21;3.30;;;2.73;;
4652;SDS011;9900;48.738;9.306;2022-11-20T03:36:50;4.10;;;2.70;;
4652;SDS011;9900;48.738;9.306;2022-11-20T03:39:18;3.20;;;2.90;;
4652;SDS011;9900;48.738;9.306;2022-11-20T03:41:48;2.87;;;2.53;;
4652;SDS011;9900;48.738;9.306;2022-11-20T03:44:16;3.40;;;2.50;;
4652;SDS011;9900;48.738;9.306;2022-11-20T03:46:45;3.57;;;2.00;;
4652;SDS011;9900;48.738;9.306;2022-11-20T03:49:15;2.90;;;2.70;;
4652;SDS011;9900;48.738;9.306;2022-11-20T03:51:44;3.90;;;2.50;;
4652;SDS011;9900;48.738;9.306;2022-11-20T03:54:12;3.00;;;2.50;;
4652;SDS011;9900;48.738;9.306;2022-11-20T03:56:41;4.20;;;2.67;;
4652;SDS011;9900;48.738;9.306;2022-11-20T03:59:10;2.53;;;2.33;;
4652;SDS011;9900;48.738;9.306;2022-11-20T04:01:39;2.77;;;2.57;;
4652;SDS011;9900;48.738;9.306;2022-11-20T04:04:15;4.10;;;2.30;;
4652;SDS011;9900;48.738;9.306;2022-11-20T04:06:44;2.40;;;2.20;;
4652;SDS011;9900;48.738;9.306;2022-11-20T04:09:13;2.10;;;1.90;;
4652;SDS011;9900;48.738;9.306;2022-11-20T04:11:42;2.90;;;2.47;;
4652;SDS011;9900;48.738;9.306;2022-11-20T04:14:12;2.33;;;2.13;;
4652;SDS011;9900;48.738;9.306;2022-11-20T04:16:42;2.13;;;1.93;;
4652;SDS011;9900;48.738;9.306;2022-11-20T04:19:11;2.50;;;2.00;;
4652;SDS011;9900;48.738;9.306;2022-11-20T04:21:42;2.40;;;2.20;;
4652;SDS011;9900;48.738;9.306;2022-11-20T04:24:11;2.30;;;2.10;;
4652;SDS011;9900;48.738;9.306;2022-11-20T04:26:40;2.80;;;2.10;;
4652;SDS011;9900;48.738;9.306;2022-11-20T04:29:10;2.23;;;2.00;;
4652;SDS011;9900;48.738;9.306;2022-11-20T04:31:39;3.67;;;2.30;;
4652;SDS011;9900;48.738;9.306;2022-11-20T04:34:07;2.33;;;2.13;;
4652;SDS011;9900;48.738;9.306;2022-11-20T04:36:38;4.50;;;2.13;;
4652;SDS011;9900;48.738;9.306;2022-11-20T04:39:12;2.60;;;2.40;;
4652;SDS011;9900;48.738;9.306;2022-11-20T04:41:42;3.37;;;2.07;;
4652;SDS011;9900;48.738;9.306;2022-11-20T04:44:11;2.90;;;2.20;;
4652;SDS011;9900;48.738;9.306;2022-11-20T04:46:40;3.77;;;2.10;;
4652;SDS011;9900;48.738;9.306;2022-11-20T04:49:10;2.57;;;1.93;;
4652;SDS011;9900;48.738;9.306;2022-11-20T04:51:39;1.70;;;1.60;;
4652;SDS011;9900;48.738;9.306;2022-11-20T04:54:08;1.97;;;1.70;;
4652;SDS011;9900;48.738;9.306;2022-11-20T04:56:39;2.10;;;1.90;;
4652;SDS011;9900;48.738;9.306;2022-11-20T04:59:07;2.50;;;2.20;;
4652;SDS011;9900;48.738;9.306;2022-11-20T05:01:36;4.13;;;1.90;;
4652;SDS011;9900;48.738;9.306;2022-11-20T05:04:05;2.40;;;2.10;;
4652;SDS011;9900;48.738;9.306;2022-11-20T05:06:34;2.00;;;1.80;;
4652;SDS011;9900;48.738;9.306;2022-11-20T05:09:02;3.33;;;2.10;;
4652;SDS011;9900;48.738;9.306;2022-11-20T05:11:31;1.90;;;1.80;;
4652;SDS011;9900;48.738;9.306;2022-11-20T05:14:01;9.03;;;2.20;;
4652;SDS011;9900;48.738;9.306;2022-11-20T05:16:30;2.20;;;2.00;;
4652;SDS011;9900;48.738;9.306;2022-11-20T05:18:58;2.90;;;2.07;;
4652;SDS011;9900;48.738;9.306;2022-11-20T05:21:29;5.93;;;2.00;;
4652;SDS011;9900;48.738;9.306;2022-11-20T05:23:58;2.10;;;1.83;;
4652;SDS011;9900;48.738;9.306;2022-11-20T05:26:26;2.17;;;1.97;;
4652;SDS011;9900;48.738;9.306;2022-11-20T05:28:55;2.37;;;1.70;;
4652;SDS011;9900;48.738;9.306;2022-11-20T05:31:25;2.10;;;1.90;;
4652;SDS011;9900;48.738;9.306;2022-11-20T05:33:55;2.47;;;2.00;;
4652;SDS011;9900;48.738;9.306;2022-11-20T05:36:24;2.43;;;1.70;;
4652;SDS011;9900;48.738;9.306;2022-11-20T05:38:53;2.50;;;2.30;;
4652;SDS011;9900;48.738;9.306;2022-11-20T05:41:28;1.90;;;1.80;;
4652;SDS011;9900;48.738;9.306;2022-11-20T05:43:56;3.83;;;2.03;;
4652;SDS011;9900;48.738;9.306;2022-11-20T05:46:27;1.90;;;1.80;;
4652;SDS011;9900;48.738;9.306;2022-11-20T05:48:56;2.60;;;1.93;;
4652;SDS011;9900;48.738;9.306;2022-11-20T05:51:25;1.80;;;1.70;;
4652;SDS011;9900;48.738;9.306;2022-11-20T05:53:55;1.80;;;1.67;;
4652;SDS011;9900;48.738;9.306;2022-11-20T05:56:24;3.80;;;2.17;;
4652;SDS011;9900;48.738;9.306;2022-11-20T05:58:53;1.60;;;1.50;;
4652;SDS011;9900;48.738;9.306;2022-11-20T06:01:22;3.30;;;1.70;;
4652;SDS011;9900;48.738;9.306;2022-11-20T06:03:53;2.33;;;1.60;;
4652;SDS011;9900;48.738;9.306;2022-11-20T06:06:22;1.70;;;1.60;;
4652;SDS011;9900;48.738;9.306;2022-11-20T06:08:52;1.73;;;1.60;;
4652;SDS011;9900;48.738;9.306;2022-11-20T06:11:20;2.13;;;1.67;;
4652;SDS011;9900;48.738;9.306;2022-11-20T06:13:49;1.87;;;1.67;;
4652;SDS011;9900;48.738;9.306;2022-11-20T06:16:18;4.50;;;1.90;;
4652;SDS011;9900;48.738;9.306;2022-11-20T06:18:48;4.80;;;1.50;;
4652;SDS011;9900;48.738;9.306;2022-11-20T06:21:19;1.50;;;1.40;;
4652;SDS011;9900;48.738;9.306;2022-11-20T06:23:49;3.00;;;1.47;;
4652;SDS011;9900;48.738;9.306;2022-11-20T06:26:19;1.53;;;1.30;;
4652;SDS011;9900;48.738;9.306;2022-11-20T06:28:49;2.33;;;1.60;;
4652;SDS011;9900;48.738;9.306;2022-11-20T06:31:18;2.60;;;1.40;;
4652;SDS011;9900;48.738;9.306;2022-11-20T06:33:48;2.40;;;1.53;;
4652;SDS011;9900;48.738;9.306;2022-11-20T06:36:20;1.67;;;1.37;;
4652;SDS011;9900;48.738;9.306;2022-11-20T06:38:49;2.13;;;1.80;;
4652;SDS011;9900;48.738;9.306;2022-11-20T06:41:19;1.60;;;1.50;;
4652;SDS011;9900;48.738;9.306;2022-11-20T06:43:48;1.73;;;1.37;;
4652;SDS011;9900;48.738;9.306;2022-11-20T06:46:18;3.13;;;1.40;;
4652;SDS011;9900;48.738;9.306;2022-11-20T06:48:47;1.80;;;1.70;;
4652;SDS011;9900;48.738;9.306;2022-11-20T06:51:16;5.27;;;1.70;;
4652;SDS011;9900;48.738;9.306;2022-11-20T06:53:47;1.67;;;1.57;;
4652;SDS011;9900;48.738;9.306;2022-11-20T06:56:15;3.07;;;1.67;;
4652;SDS011;9900;48.738;9.306;2022-11-20T06:58:44;1.80;;;1.70;;
4652;SDS011;9900;48.738;9.306;2022-11-20T07:01:13;2.17;;;1.77;;
4652;SDS011;9900;48.738;9.306;2022-11-20T07:03:43;2.10;;;1.90;;
4652;SDS011;9900;48.738;9.306;2022-11-20T07:06:18;2.27;;;1.60;;
4652;SDS011;9900;48.738;9.306;2022-11-20T07:08:47;2.80;;;1.80;;
4652;SDS011;9900;48.738;9.306;2022-11-20T07:11:18;3.10;;;1.93;;
4652;SDS011;9900;48.738;9.306;2022-11-20T07:13:47;2.63;;;1.53;;
4652;SDS011;9900;48.738;9.306;2022-11-20T07:16:15;2.63;;;2.00;;
4652;SDS011;9900;48.738;9.306;2022-11-20T07:18:44;1.87;;;1.53;;
4652;SDS011;9900;48.738;9.306;2022-11-20T07:21:18;4.00;;;1.50;;
4652;SDS011;9900;48.738;9.306;2022-11-20T07:23:47;3.00;;;1.80;;
4652;SDS011;9900;48.738;9.306;2022-11-20T07:26:15;2.50;;;2.03;;
4652;SDS011;9900;48.738;9.306;2022-11-20T07:28:44;3.20;;;1.97;;
4652;SDS011;9900;48.738;9.306;2022-11-20T07:31:13;2.07;;;1.70;;
4652;SDS011;9900;48.738;9.306;2022-11-20T07:33:45;1.63;;;1.50;;
4652;SDS011;9900;48.738;9.306;2022-11-20T07:36:14;1.83;;;1.70;;
4652;SDS011;9900;48.738;9.306;2022-11-20T07:38:44;1.70;;;1.60;;
4652;SDS011;9900;48.738;9.306;2022-11-20T07:41:12;3.93;;;1.70;;
4652;SDS011;9900;48.738;9.306;2022-11-20T07:43:41;3.57;;;1.50;;
4652;SDS011;9900;48.738;9.306;2022-11-20T07:46:09;3.10;;;2.20;;
4652;SDS011;9900;48.738;9.306;2022-11-20T07:48:38;2.20;;;2.10;;
4652;SDS011;9900;48.738;9.306;2022-11-20T07:51:07;6.10;;;2.00;;
4652;SDS011;9900;48.738;9.306;2022-11-20T07:53:35;3.10;;;1.93;;
4652;SDS011;9900;48.738;9.306;2022-11-20T07:56:06;1.67;;;1.57;;
4652;SDS011;9900;48.738;9.306;2022-11-20T07:58:35;2.70;;;1.90;;
4652;SDS011;9900;48.738;9.306;2022-11-20T08:01:03;1.50;;;1.40;;
4652;SDS011;9900;48.738;9.306;2022-11-20T08:03:33;1.63;;;1.53;;
4652;SDS011;9900;48.738;9.306;2022-11-20T08:06:02;1.77;;;1.50;;
4652;SDS011;9900;48.738;9.306;2022-11-20T08:08:31;1.50;;;1.40;;
4652;SDS011;9900;48.738;9.306;2022-11-20T08:11:01;7.40;;;2.00;;
4652;SDS011;9900;48.738;9.306;2022-11-20T08:13:48;1.60;;;1.50;;
4652;SDS011;9900;48.738;9.306;2022-11-20T08:16:34;1.40;;;1.30;;
4652;SDS011;9900;48.738;9.306;2022-11-20T08:19:03;2.20;;;1.70;;
4652;SDS011;9900;48.738;9.306;2022-11-20T08:21:33;1.60;;;1.50;;
4652;SDS011;9900;48.738;9.306;2022-11-20T08:24:05;4.60;;;1.87;;
4652;SDS011;9900;48.738;9.306;2022-11-20T08:26:34;1.60;;;1.50;;
4652;SDS011;9900;48.738;9.306;2022-11-20T08:29:04;1.87;;;1.60;;
4652;SDS011;9900;48.738;9.306;2022-11-20T08:31:34;2.53;;;1.70;;
4652;SDS011;9900;48.738;9.306;2022-11-20T08:34:03;4.60;;;1.87;;
4652;SDS011;9900;48.738;9.306;2022-11-20T08:36:36;1.67;;;1.57;;
4652;SDS011;9900;48.738;9.306;2022-11-20T08:39:05;1.87;;;1.70;;
4652;SDS011;9900;48.738;9.306;2022-11-20T08:41:33;1.90;;;1.60;;
4652;SDS011;9900;48.738;9.306;2022-11-20T08:44:05;2.23;;;1.73;;
4652;SDS011;9900;48.738;9.306;2022-11-20T08:46:36;2.60;;;1.33;;
4652;SDS011;9900;48.738;9.306;2022-11-20T08:49:06;2.10;;;1.30;;
4652;SDS011;9900;48.738;9.306;2022-11-20T08:51:35;2.80;;;1.83;;
4652;SDS011;9900;48.738;9.306;2022-11-20T08:54:04;2.07;;;1.73;;
4652;SDS011;9900;48.738;9.306;2022-11-20T08:56:34;1.80;;;1.63;;
4652;SDS011;9900;48.738;9.306;2022-11-20T08:59:04;3.67;;;1.50;;
4652;SDS011;9900;48.738;9.306;2022-11-20T09:01:53;4.10;;;1.63;;
4652;SDS011;9900;48.738;9.306;2022-11-20T09:04:22;1.60;;;1.50;;
4652;SDS011;9900;48.738;9.306;2022-11-20T09:06:50;2.03;;;1.50;;
4652;SDS011;9900;48.738;9.306;2022-11-20T09:09:19;1.30;;;1.20;;
4652;SDS011;9900;48.738;9.306;2022-11-20T09:11:48;1.30;;;1.20;;
4652;SDS011;9900;48.738;9.306;2022-11-20T09:14:19;2.00;;;1.83;;
4652;SDS011;9900;48.738;9.306;2022-11-20T09:16:48;1.63;;;1.43;;
4652;SDS011;9900;48.738;9.306;2022-11-20T09:19:17;1.97;;;1.77;;
4652;SDS011;9900;48.738;9.306;2022-11-20T09:22:02;2.23;;;1.30;;
4652;SDS011;9900;48.738;9.306;2022-11-20T09:24:31;3.10;;;1.50;;
4652;SDS011;9900;48.738;9.306;2022-11-20T09:27:01;1.70;;;1.60;;
4652;SDS011;9900;48.738;9.306;2022-11-20T09:29:32;1.47;;;1.30;;
4652;SDS011;9900;48.738;9.306;2022-11-20T09:32:01;1.67;;;1.20;;
4652;SDS011;9900;48.738;9.306;2022-11-20T09:34:29;1.00;;;1.00;;
4652;SDS011;9900;48.738;9.306;2022-11-20T09:36:58;1.47;;;1.03;;
4652;SDS011;9900;48.738;9.306;2022-11-20T09:39:32;0.90;;;0.90;;
4652;SDS011;9900;48.738;9.306;2022-11-20T09:42:10;1.33;;;0.90;;
4652;SDS011;9900;48.738;9.306;2022-11-20T09:44:51;0.90;;;0.77;;
4652;SDS011;9900;48.738;9.306;2022-11-20T09:47:32;1.07;;;0.90;;
4652;SDS011;9900;48.738;9.306;2022-11-20T09:50:10;1.37;;;0.90;;
4652;SDS011;9900;48.738;9.306;2022-11-20T09:52:49;0.73;;;0.70;;
4652;SDS011;9900;48.738;9.306;2022-11-20T09:55:27;2.40;;;0.90;;
4652;SDS011;9900;48.738;9.306;2022-11-20T09:57:57;1.00;;;0.90;;
4652;SDS011;9900;48.738;9.306;2022-11-20T10:00:28;0.90;;;0.80;;
4652;SDS011;9900;48.738;9.306;2022-11-20T10:02:58;0.83;;;0.80;;
4652;SDS011;9900;48.738;9.306;2022-11-20T10:05:30;1.07;;;0.90;;
4652;SDS011;9900;48.738;9.306;2022-11-20T10:08:03;0.77;;;0.77;;
4652;SDS011;9900;48.738;9.306;2022-11-20T10:10:39;0.80;;;0.73;;
4652;SDS011;9900;48.738;9.306;2022-11-20T10:13:14;0.97;;;0.77;;
4652;SDS011;9900;48.738;9.306;2022-11-20T10:15:53;0.70;;;0.70;;
4652;SDS011;9900;48.738;9.306;2022-11-20T10:18:31;0.70;;;0.70;;
4652;SDS011;9900;48.738;9.306;2022-11-20T10:21:08;4.43;;;0.80;;
4652;SDS011;9900;48.738;9.306;2022-11-20T10:23:44;7.43;;;0.97;;
4652;SDS011;9900;48.738;9.306;2022-11-20T10:26:21;0.90;;;0.80;;
4652;SDS011;9900;48.738;9.306;2022-11-20T10:29:07;0.70;;;0.70;;
4652;SDS011;9900;48.738;9.306;2022-11-20T10:31:40;0.77;;;0.77;;
4652;SDS011;9900;48.738;9.306;2022-11-20T10:34:15;0.70;;;0.70;;
4652;SDS011;9900;48.738;9.306;2022-11-20T10:36:51;0.80;;;0.70;;
4652;SDS011;9900;48.738;9.306;2022-11-20T10:39:24;0.70;;;0.70;;
4652;SDS011;9900;48.738;9.306;2022-11-20T10:41:58;1.07;;;0.80;;
4652;SDS011;9900;48.738;9.306;2022-11-20T10:44:28;0.80;;;0.80;;
4652;SDS011;9900;48.738;9.306;2022-11-20T10:47:24;0.90;;;0.90;;
4652;SDS011;9900;48.738;9.306;2022-11-20T10:49:55;2.53;;;0.70;;
4652;SDS011;9900;48.738;9.306;2022-11-20T10:52:25;2.20;;;1.00;;
4652;SDS011;9900;48.738;9.306;2022-11-20T10:54:59;2.90;;;1.10;;
4652;SDS011;9900;48.738;9.306;2022-11-20T10:57:38;1.03;;;0.80;;
4652;SDS011;9900;48.738;9.306;2022-11-20T11:00:15;1.53;;;0.90;;
4652;SDS011;9900;48.738;9.306;2022-11-20T11:02:46;1.63;;;0.90;;
4652;SDS011;9900;48.738;9.306;2022-11-20T11:05:24;1.53;;;0.97;;
4652;SDS011;9900;48.738;9.306;2022-11-20T11:07:56;1.37;;;0.90;;
4652;SDS011;9900;48.738;9.306;2022-11-20T11:10:27;2.10;;;0.80;;
4652;SDS011;9900;48.738;9.306;2022-11-20T11:13:00;0.90;;;0.80;;
4652;SDS011;9900;48.738;9.306;2022-11-20T11:15:30;0.80;;;0.80;;
4652;SDS011;9900;48.738;9.306;2022-11-20T11:18:09;0.80;;;0.80;;
4652;SDS011;9900;48.738;9.306;2022-11-20T11:20:38;1.70;;;0.90;;
4652;SDS011;9900;48.738;9.306;2022-11-20T11:23:10;1.40;;;1.10;;
4652;SDS011;9900;48.738;9.306;2022-11-20T11:25:58;1.63;;;1.00;;
4652;SDS011;9900;48.738;9.306;2022-11-20T11:28:28;2.37;;;1.03;;
4652;SDS011;9900;48.738;9.306;2022-11-20T11:30:57;1.07;;;0.97;;
4652;SDS011;9900;48.738;9.306;2022-11-20T11:33:27;1.50;;;0.90;;
4652;SDS011;9900;48.738;9.306;2022-11-20T11:35:57;1.77;;;1.30;;
4652;SDS011;9900;48.738;9.306;2022-11-20T11:38:29;2.70;;;1.37;;
4652;SDS011;9900;48.738;9.306;2022-11-20T11:40:59;1.10;;;1.00;;
4652;SDS011;9900;48.738;9.306;2022-11-20T11:43:28;2.07;;;1.27;;
4652;SDS011;9900;48.738;9.306;2022-11-20T11:46:24;1.27;;;1.07;;
4652;SDS011;9900;48.738;9.306;2022-11-20T11:48:58;2.20;;;0.97;;
4652;SDS011;9900;48.738;9.306;2022-11-20T11:51:29;1.30;;;0.90;;
4652;SDS011;9900;48.738;9.306;2022-11-20T11:54:01;0.70;;;0.70;;
4652;SDS011;9900;48.738;9.306;2022-11-20T11:56:36;1.40;;;1.00;;
4652;SDS011;9900;48.738;9.306;2022-11-20T11:59:06;1.13;;;0.97;;
4652;SDS011;9900;48.738;9.306;2022-11-20T12:01:39;1.10;;;1.00;;
4652;SDS011;9900;48.738;9.306;2022-11-20T12:04:14;2.90;;;1.00;;
4652;SDS011;9900;48.738;9.306;2022-11-20T12:06:47;1.97;;;0.97;;
4652;SDS011;9900;48.738;9.306;2022-11-20T12:09:18;1.30;;;1.00;;
4652;SDS011;9900;48.738;9.306;2022-11-20T12:11:49;1.80;;;0.97;;
4652;SDS011;9900;48.738;9.306;2022-11-20T12:14:22;2.70;;;1.00;;
4652;SDS011;9900;48.738;9.306;2022-11-20T12:16:55;2.23;;;1.00;;
4652;SDS011;9900;48.738;9.306;2022-11-20T12:19:26;2.43;;;1.30;;
4652;SDS011;9900;48.738;9.306;2022-11-20T12:21:57;3.13;;;1.30;;
4652;SDS011;9900;48.738;9.306;2022-11-20T12:24:37;3.67;;;1.40;;
4652;SDS011;9900;48.738;9.306;2022-11-20T12:30:13;1.43;;;1.10;;
4652;SDS011;9900;48.738;9.306;2022-11-20T12:32:49;2.40;;;0.90;;
4652;SDS011;9900;48.738;9.306;2022-11-20T12:35:44;1.23;;;0.77;;
4652;SDS011;9900;48.738;9.306;2022-11-20T12:38:27;2.50;;;0.83;;
4652;SDS011;9900;48.738;9.306;2022-11-20T12:41:02;2.17;;;1.00;;
4652;SDS011;9900;48.738;9.306;2022-11-20T12:43:39;0.97;;;0.80;;
4652;SDS011;9900;48.738;9.306;2022-11-20T12:46:40;3.17;;;1.17;;
4652;SDS011;9900;48.738;9.306;2022-11-20T12:49:18;4.13;;;1.20;;
4652;SDS011;9900;48.738;9.306;2022-11-20T12:52:07;1.80;;;0.90;;
4652;SDS011;9900;48.738;9.306;2022-11-20T12:55:03;1.43;;;0.87;;
4652;SDS011;9900;48.738;9.306;2022-11-20T12:57:40;1.23;;;0.70;;
4652;SDS011;9900;48.738;9.306;2022-11-20T13:00:16;2.53;;;0.97;;
4652;SDS011;9900;48.738;9.306;2022-11-20T13:05:52;1.27;;;0.80;;
4652;SDS011;9900;48.738;9.306;2022-11-20T13:08:27;3.83;;;0.90;;
4652;SDS011;9900;48.738;9.306;2022-11-20T13:10:59;2.60;;;1.10;;
4652;SDS011;9900;48.738;9.306;2022-11-20T13:13:33;2.20;;;0.80;;
4652;SDS011;9900;48.738;9.306;2022-11-20T13:16:08;2.40;;;0.90;;
4652;SDS011;9900;48.738;9.306;2022-11-20T13:18:40;1.70;;;0.93;;
4652;SDS011;9900;48.738;9.306;2022-11-20T13:21:16;1.53;;;0.70;;
4652;SDS011;9900;48.738;9.306;2022-11-20T13:23:47;1.33;;;0.80;;
4652;SDS011;9900;48.738;9.306;2022-11-20T13:26:17;2.13;;;1.10;;
4652;SDS011;9900;48.738;9.306;2022-11-20T13:28:48;1.20;;;0.80;;
4652;SDS011;9900;48.738;9.306;2022-11-20T13:31:41;1.77;;;1.17;;
4652;SDS011;9900;48.738;9.306;2022-11-20T13:34:12;2.17;;;1.40;;
4652;SDS011;9900;48.738;9.306;2022-11-20T13:36:49;1.43;;;1.00;;
4652;SDS011;9900;48.738;9.306;2022-11-20T13:39:26;1.10;;;0.80;;
4652;SDS011;9900;48.738;9.306;2022-11-20T13:41:55;2.30;;;0.83;;
4652;SDS011;9900;48.738;9.306;2022-11-20T13:44:25;1.67;;;0.80;;
4652;SDS011;9900;48.738;9.306;2022-11-20T13:46:57;2.30;;;0.80;;
4652;SDS011;9900;48.738;9.306;2022-11-20T13:49:26;1.07;;;0.80;;
4652;SDS011;9900;48.738;9.306;2022-11-20T13:51:59;0.87;;;0.83;;
4652;SDS011;9900;48.738;9.306;2022-11-20T13:54:47;2.77;;;1.23;;
4652;SDS011;9900;48.738;9.306;2022-11-20T13:57:40;2.70;;;1.23;;
4652;SDS011;9900;48.738;9.306;2022-11-20T14:00:25;3.80;;;1.97;;
4652;SDS011;9900;48.738;9.306;2022-11-20T14:02:59;1.87;;;0.93;;
4652;SDS011;9900;48.738;9.306;2022-11-20T14:05:31;1.87;;;1.00;;
4652;SDS011;9900;48.738;9.306;2022-11-20T14:08:03;2.43;;;1.73;;
4652;SDS011;9900;48.738;9.306;2022-11-20T14:10:34;1.53;;;1.43;;
4652;SDS011;9900;48.738;9.306;2022-11-20T14:13:10;1.60;;;1.37;;
4652;SDS011;9900;48.738;9.306;2022-11-20T14:15:39;2.43;;;1.00;;
4652;SDS011;9900;48.738;9.306;2022-11-20T14:18:12;1.80;;;0.90;;
4652;SDS011;9900;48.738;9.306;2022-11-20T14:20:42;4.73;;;0.93;;
4652;SDS011;9900;48.738;9.306;2022-11-20T14:23:11;3.60;;;1.00;;
4652;SDS011;9900;48.738;9.306;2022-11-20T14:25:43;1.10;;;0.90;;
4652;SDS011;9900;48.738;9.306;2022-11-20T14:28:18;1.83;;;1.20;;
4652;SDS011;9900;48.738;9.306;2022-11-20T14:30:50;2.97;;;1.10;;
4652;SDS011;9900;48.738;9.306;2022-11-20T14:33:18;2.63;;;1.13;;
4652;SDS011;9900;48.738;9.306;2022-11-20T14:35:52;1.40;;;0.80;;
4652;SDS011;9900;48.738;9.306;2022-11-20T14:38:23;3.13;;;0.80;;
4652;SDS011;9900;48.738;9.306;2022-11-20T14:41:05;2.53;;;0.87;;
4652;SDS011;9900;48.738;9.306;2022-11-20T14:43:34;1.20;;;0.80;;
4652;SDS011;9900;48.738;9.306;2022-11-20T14:46:05;5.17;;;1.37;;
4652;SDS011;9900;48.738;9.306;2022-11-20T14:48:36;2.07;;;1.20;;
4652;SDS011;9900;48.738;9.306;2022-11-20T14:51:08;0.97;;;0.80;;
4652;SDS011;9900;48.738;9.306;2022-11-20T14:53:37;3.33;;;1.30;;
4652;SDS011;9900;48.738;9.306;2022-11-20T14:56:08;1.10;;;1.00;;
4652;SDS011;9900;48.738;9.306;2022-11-20T14:58:37;1.27;;;1.00;;
4652;SDS011;9900;48.738;9.306;2022-11-20T15:01:06;0.90;;;0.80;;
4652;SDS011;9900;48.738;9.306;2022-11-20T15:03:40;7.33;;;1.00;;
4652;SDS011;9900;48.738;9.306;2022-11-20T15:06:10;2.17;;;0.90;;
4652;SDS011;9900;48.738;9.306;2022-11-20T15:08:49;2.80;;;1.10;;
4652;SDS011;9900;48.738;9.306;2022-11-20T15:11:20;1.17;;;0.97;;
4652;SDS011;9900;48.738;9.306;2022-11-20T15:13:54;3.10;;;1.03;;
4652;SDS011;9900;48.738;9.306;2022-11-20T15:16:22;1.57;;;0.80;;
4652;SDS011;9900;48.738;9.306;2022-11-20T15:18:52;1.40;;;1.00;;
4652;SDS011;9900;48.738;9.306;2022-11-20T15:21:21;4.50;;;1.23;;
4652;SDS011;9900;48.738;9.306;2022-11-20T15:23:49;1.40;;;1.13;;
4652;SDS011;9900;48.738;9.306;2022-11-20T15:26:22;2.47;;;1.07;;
4652;SDS011;9900;48.738;9.306;2022-11-20T15:28:54;3.67;;;1.00;;
4652;SDS011;9900;48.738;9.306;2022-11-20T15:31:23;1.00;;;0.90;;
4652;SDS011;9900;48.738;9.306;2022-11-20T15:33:55;1.83;;;1.00;;
4652;SDS011;9900;48.738;9.306;2022-11-20T15:36:39;2.13;;;1.20;;
4652;SDS011;9900;48.738;9.306;2022-11-20T15:39:08;3.10;;;1.33;;
4652;SDS011;9900;48.738;9.306;2022-11-20T15:41:39;1.20;;;1.10;;
4652;SDS011;9900;48.738;9.306;2022-11-20T15:44:08;1.37;;;0.80;;
4652;SDS011;9900;48.738;9.306;2022-11-20T15:46:37;3.67;;;1.23;;
4652;SDS011;9900;48.738;9.306;2022-11-20T15:49:10;3.03;;;1.20;;